createdAt,value
2023-02-03T05:43:52.753Z,1.85
2023-02-03T05:52:05.464Z,1.75
2023-02-03T06:01:16.791Z,2.28
2023-02-03T06:09:45.867Z,1.77
2023-02-03T06:12:13.031Z,2.13
2023-02-03T06:17:21.746Z,2.65
2023-02-03T06:23:23.753Z,2.03
2023-02-03T06:25:54.449Z,1.20
2023-02-03T06:57:58.180Z,1.60
2023-02-03T07:12:43.204Z,1.88
2023-02-03T07:18:46.809Z,2.00
2023-02-03T08:28:21.846Z,2.08
2023-02-03T09:59:18.672Z,2.00
2023-02-03T10:07:54.811Z,2.65
2023-02-03T10:57:06.269Z,1.80
2023-02-03T11:05:10.837Z,2.03
2023-02-03T11:07:37.934Z,2.03
2023-02-03T11:10:28.862Z,1.88
2023-02-03T11:13:12.384Z,1.83
2023-02-03T11:15:44.453Z,1.52
2023-02-03T11:18:41.039Z,1.73
2023-02-03T11:21:15.323Z,1.35
2023-02-03T12:09:18.473Z,1.60
2023-02-03T12:18:00.001Z,1.70
2023-02-03T12:26:35.848Z,1.45
2023-02-03T12:32:14.043Z,1.52
2023-02-03T12:37:56.917Z,1.60
2023-02-03T12:46:01.041Z,2.10
2023-02-03T12:48:34.485Z,1.95
2023-02-03T12:51:07.414Z,1.42
2023-02-03T12:53:41.327Z,1.70
2023-02-03T12:56:12.467Z,1.80
2023-02-03T12:58:44.836Z,1.60
2023-02-03T13:01:19.298Z,1.75
2023-02-03T13:03:50.445Z,1.50
2023-02-03T13:06:24.963Z,1.17
2023-02-03T13:09:01.716Z,1.33
2023-02-03T13:11:36.029Z,1.75
2023-02-03T13:14:14.379Z,1.60
2023-02-03T13:16:45.044Z,1.60
2023-02-03T13:19:18.918Z,1.65
2023-02-03T13:24:17.568Z,1.98
2023-02-03T13:27:05.435Z,1.80
2023-02-03T13:29:54.765Z,1.50
2023-02-03T13:32:39.915Z,1.30
2023-02-03T13:35:32.240Z,1.75
2023-02-03T13:38:21.180Z,1.33
2023-02-03T13:41:06.226Z,1.80
2023-02-03T13:43:39.052Z,1.58
2023-02-03T13:46:17.345Z,2.00
2023-02-03T13:48:46.538Z,1.98
2023-02-03T13:51:16.443Z,1.50
2023-02-03T13:53:46.003Z,1.88
2023-02-03T13:56:21.580Z,1.80
2023-02-03T13:59:01.483Z,2.00
2023-02-03T14:01:33.967Z,1.98
2023-02-03T14:04:02.512Z,1.25
2023-02-03T14:06:58.056Z,1.60
2023-02-03T14:09:38.429Z,2.20
2023-02-03T14:12:41.954Z,1.50
2023-02-03T14:15:32.367Z,1.70
2023-02-03T14:18:06.749Z,1.50
2023-02-03T14:20:54.501Z,1.40
2023-02-03T14:23:27.197Z,1.45
2023-02-03T14:25:57.719Z,1.50
2023-02-03T14:28:29.905Z,1.80
2023-02-03T14:31:07.666Z,1.58
2023-02-03T14:34:07.904Z,1.70
2023-02-03T14:36:47.899Z,1.25
2023-02-03T14:39:48.902Z,1.58
2023-02-03T14:42:29.825Z,2.33
2023-02-03T14:45:11.819Z,1.65
2023-02-03T14:48:01.067Z,2.10
2023-02-03T14:50:38.042Z,1.95
2023-02-03T14:53:22.087Z,1.75
2023-02-03T14:55:59.695Z,2.30
2023-02-03T14:58:32.236Z,1.70
2023-02-03T15:01:00.655Z,2.20
2023-02-03T15:03:31.318Z,2.30
2023-02-03T15:06:01.987Z,2.10
2023-02-03T15:08:44.499Z,2.38
2023-02-03T15:11:33.928Z,2.10
2023-02-03T15:14:20.700Z,1.90
2023-02-03T15:16:52.220Z,2.40
2023-02-03T15:19:23.970Z,2.03
2023-02-03T15:21:50.949Z,2.63
2023-02-03T15:24:21.562Z,2.70
2023-02-03T15:26:50.624Z,2.67
2023-02-03T15:29:24.898Z,2.13
2023-02-03T15:31:59.733Z,2.75
2023-02-03T15:34:35.500Z,2.40
2023-02-03T15:37:08.816Z,1.88
2023-02-03T15:39:46.137Z,2.17
2023-02-03T15:42:21.212Z,2.17
2023-02-03T15:44:54.541Z,1.80
2023-02-03T15:47:28.242Z,2.45
2023-02-03T15:50:05.086Z,3.20
2023-02-03T15:52:39.694Z,3.00
2023-02-03T15:55:17.793Z,2.63
2023-02-03T15:57:48.377Z,2.88
2023-02-03T16:00:30.933Z,3.08
2023-02-03T16:02:59.810Z,3.38
2023-02-03T16:05:31.845Z,2.78
2023-02-03T16:08:34.814Z,3.47
2023-02-03T16:11:02.275Z,2.13
2023-02-03T16:13:32.441Z,2.30
2023-02-03T16:16:08.317Z,2.28
2023-02-03T16:18:36.844Z,3.03
2023-02-03T16:21:06.106Z,3.13
2023-02-03T16:23:33.390Z,2.53
2023-02-03T16:26:05.712Z,3.03
2023-02-03T16:28:55.787Z,3.58
2023-02-03T16:31:42.307Z,4.03
2023-02-03T16:34:36.838Z,3.72
2023-02-03T16:40:17.819Z,2.80
2023-02-03T16:43:03.708Z,2.85
2023-02-03T16:45:49.225Z,2.80
2023-02-03T16:48:34.899Z,3.20
2023-02-03T16:51:07.222Z,3.17
2023-02-03T16:53:35.667Z,3.10
2023-02-03T16:56:04.776Z,3.25
2023-02-03T16:58:32.390Z,4.25
2023-02-03T17:01:02.352Z,3.22
2023-02-03T17:03:30.297Z,3.10
2023-02-03T17:05:57.747Z,4.13
2023-02-03T17:08:26.343Z,3.28
2023-02-03T17:10:55.554Z,3.97
2023-02-03T17:13:24.498Z,3.13
2023-02-03T17:15:55.153Z,3.42
2023-02-03T17:18:22.356Z,3.45
2023-02-03T17:20:49.792Z,3.75
2023-02-03T17:23:17.674Z,3.42
2023-02-03T17:25:46.397Z,3.92
2023-02-03T17:28:15.414Z,3.67
2023-02-03T17:30:42.649Z,3.85
2023-02-03T17:33:12.403Z,3.65
2023-02-03T17:35:41.247Z,4.00
2023-02-03T17:38:09.276Z,4.07
2023-02-03T17:54:33.950Z,3.40
2023-02-03T17:57:01.843Z,4.20
2023-02-03T17:59:30.519Z,4.80
2023-02-03T18:01:57.444Z,4.65
2023-02-03T18:04:25.402Z,5.00
2023-02-03T18:06:54.700Z,4.70
2023-02-03T18:09:21.940Z,4.95
2023-02-03T18:11:49.834Z,6.13
2023-02-03T18:14:18.232Z,5.85
2023-02-03T18:16:49.554Z,5.38
2023-02-03T18:19:16.873Z,6.15
2023-02-03T18:21:44.728Z,6.85
2023-02-03T18:24:13.872Z,6.95
2023-02-03T18:26:48.395Z,6.38
2023-02-03T18:29:15.521Z,6.57
2023-02-03T18:31:44.106Z,6.75
2023-02-03T18:34:12.838Z,6.95
2023-02-03T18:39:14.698Z,13.10
2023-02-03T18:41:41.892Z,10.15
2023-02-03T18:44:09.624Z,8.60
2023-02-03T18:46:36.629Z,5.97
2023-02-03T18:49:03.774Z,6.95
2023-02-03T18:51:32.321Z,7.45
2023-02-03T18:54:54.025Z,5.88
2023-02-03T18:57:25.301Z,5.93
2023-02-03T18:59:52.195Z,6.35
2023-02-03T19:02:19.320Z,6.72
2023-02-03T19:04:46.311Z,7.50
2023-02-03T19:07:14.767Z,7.38
2023-02-03T19:09:41.802Z,7.47
2023-02-03T19:12:09.268Z,6.70
2023-02-03T19:14:36.628Z,6.82
2023-02-03T19:17:04.574Z,6.97
2023-02-03T19:19:31.560Z,6.90
2023-02-03T19:21:58.804Z,8.00
2023-02-03T19:24:27.269Z,7.70
2023-02-03T19:26:55.111Z,8.02
2023-02-03T19:29:22.180Z,7.38
2023-02-03T19:31:49.228Z,8.07
2023-02-03T19:34:17.063Z,7.65
2023-02-03T19:36:44.324Z,7.32
2023-02-03T19:39:11.512Z,7.65
2023-02-03T19:41:40.335Z,7.70
2023-02-03T19:44:07.878Z,7.65
2023-02-03T19:46:39.062Z,8.15
2023-02-03T19:49:11.700Z,8.48
2023-02-03T19:51:39.037Z,8.07
2023-02-03T19:54:06.588Z,9.40
2023-02-03T19:56:33.731Z,8.48
2023-02-03T19:59:02.087Z,8.32
2023-02-03T20:01:29.537Z,10.05
2023-02-03T20:03:58.565Z,10.05
2023-02-03T20:06:26.545Z,10.63
2023-02-03T20:08:56.256Z,9.27
2023-02-03T20:11:23.395Z,9.23
2023-02-03T20:13:50.920Z,8.23
2023-02-03T20:16:19.437Z,9.05
2023-02-03T20:18:46.837Z,8.68
2023-02-03T20:21:14.399Z,7.70
2023-02-03T20:23:41.378Z,7.40
2023-02-03T20:26:08.650Z,8.18
2023-02-03T20:28:35.723Z,7.80
2023-02-03T20:31:03.239Z,7.43
2023-02-03T20:33:31.816Z,7.60
2023-02-03T20:35:58.880Z,6.80
2023-02-03T20:38:25.978Z,7.53
2023-02-03T20:40:53.042Z,6.97
2023-02-03T20:43:22.226Z,6.28
2023-02-03T20:45:49.777Z,6.65
2023-02-03T20:48:19.886Z,5.95
2023-02-03T20:50:50.241Z,5.50
2023-02-03T20:53:19.552Z,5.30
2023-02-03T20:55:46.880Z,5.53
2023-02-03T20:58:18.627Z,5.72
2023-02-03T21:00:46.755Z,4.90
2023-02-03T21:03:34.067Z,4.50
2023-02-03T21:06:02.625Z,4.78
2023-02-03T21:08:29.835Z,4.72
2023-02-03T21:10:56.774Z,4.40
2023-02-03T21:13:26.445Z,4.95
2023-02-03T21:15:55.133Z,4.25
2023-02-03T21:18:32.365Z,3.95
2023-02-03T21:21:00.250Z,4.90
2023-02-03T21:23:40.213Z,4.88
2023-02-03T21:26:17.543Z,5.57
2023-02-03T21:28:44.889Z,6.75
2023-02-03T21:31:22.650Z,6.90
2023-02-03T21:33:49.937Z,6.97
2023-02-03T21:36:17.871Z,6.88
2023-02-03T21:38:49.064Z,6.40
2023-02-03T21:41:18.001Z,7.28
2023-02-03T21:43:47.182Z,7.75
2023-02-03T21:46:18.782Z,7.15
2023-02-03T21:48:50.752Z,7.63
2023-02-03T21:51:20.733Z,9.05
2023-02-03T21:53:54.400Z,12.00
2023-02-03T21:56:23.552Z,11.60
2023-02-03T21:58:52.051Z,8.70
2023-02-03T22:01:20.333Z,7.75
2023-02-03T22:03:49.985Z,6.80
2023-02-03T22:06:20.671Z,6.88
2023-02-03T22:08:50.659Z,5.15
2023-02-03T22:11:22.957Z,4.70
2023-02-03T22:13:50.083Z,4.78
2023-02-03T22:16:18.045Z,5.38
2023-02-03T22:18:46.305Z,4.78
2023-02-03T22:21:13.941Z,5.00
2023-02-03T22:23:41.149Z,4.65
2023-02-03T22:26:11.266Z,4.55
2023-02-03T22:28:38.958Z,4.57
2023-02-03T22:31:07.708Z,4.68
2023-02-03T22:33:35.334Z,4.90
2023-02-03T22:36:03.490Z,5.03
2023-02-03T22:38:30.952Z,4.65
2023-02-03T22:40:57.884Z,5.25
2023-02-03T22:43:26.897Z,4.72
2023-02-03T22:45:54.476Z,4.47
2023-02-03T22:48:21.933Z,4.90
2023-02-03T22:50:49.023Z,4.32
2023-02-03T22:53:16.239Z,4.63
2023-02-03T22:55:43.430Z,4.50
2023-02-03T22:58:10.547Z,4.32
2023-02-03T23:00:39.104Z,4.20
2023-02-03T23:03:06.196Z,4.25
2023-02-03T23:05:33.456Z,4.25
2023-02-03T23:08:00.490Z,3.50
2023-02-03T23:10:31.087Z,3.60
2023-02-03T23:13:00.895Z,3.60
2023-02-03T23:15:28.566Z,3.10
2023-02-03T23:17:57.123Z,3.25
2023-02-03T23:20:24.167Z,3.10
2023-02-03T23:22:51.322Z,2.28
2023-02-03T23:25:18.372Z,2.55
2023-02-03T23:27:45.635Z,2.80
2023-02-03T23:30:13.972Z,2.33
2023-02-03T23:32:41.029Z,2.55
2023-02-03T23:35:28.024Z,2.85
2023-02-03T23:37:55.341Z,3.15
2023-02-03T23:40:22.617Z,2.88
2023-02-03T23:42:50.170Z,3.22
2023-02-03T23:45:17.437Z,2.90
2023-02-03T23:47:45.291Z,3.33
2023-02-03T23:50:16.133Z,2.80
2023-02-03T23:52:43.081Z,2.97
2023-02-03T23:55:12.332Z,3.13
2023-02-03T23:57:42.546Z,3.08
